sensor_id;sensor_type;location;lat;lon;timestamp;temperature;humidity
66337;SHT30;53139;45.576;5.304;2023-06-26T00:00:45;19.30;79.71
66337;SHT30;53139;45.576;5.304;2023-06-26T00:03:47;19.35;79.40
66337;SHT30;53139;45.576;5.304;2023-06-26T00:06:47;19.14;80.46
66337;SHT30;53139;45.576;5.304;2023-06-26T00:09:48;19.29;79.63
66337;SHT30;53139;45.576;5.304;2023-06-26T00:12:48;19.12;80.11
66337;SHT30;53139;45.576;5.304;2023-06-26T00:15:48;19.07;80.08
66337;SHT30;53139;45.576;5.304;2023-06-26T00:19:20;18.33;82.39
66337;SHT30;53139;45.576;5.304;2023-06-26T00:23:51;18.50;82.38
66337;SHT30;53139;45.576;5.304;2023-06-26T00:28:10;18.36;83.33
66337;SHT30;53139;45.576;5.304;2023-06-26T00:40:52;18.57;81.99
66337;SHT30;53139;45.576;5.304;2023-06-26T00:45:02;18.45;82.70
66337;SHT30;53139;45.576;5.304;2023-06-26T00:53:54;18.37;82.94
66337;SHT30;53139;45.576;5.304;2023-06-26T01:02:05;18.21;83.68
66337;SHT30;53139;45.576;5.304;2023-06-26T01:06:10;18.04;83.04
66337;SHT30;53139;45.576;5.304;2023-06-26T01:14:26;17.92;85.13
66337;SHT30;53139;45.576;5.304;2023-06-26T01:18:32;18.00;84.39
66337;SHT30;53139;45.576;5.304;2023-06-26T01:22:58;17.64;86.37
66337;SHT30;53139;45.576;5.304;2023-06-26T01:27:25;17.45;88.44
66337;SHT30;53139;45.576;5.304;2023-06-26T01:31:51;17.45;88.62
66337;SHT30;53139;45.576;5.304;2023-06-26T01:35:46;17.62;86.06
66337;SHT30;53139;45.576;5.304;2023-06-26T01:44:26;17.66;86.31
66337;SHT30;53139;45.576;5.304;2023-06-26T01:48:40;17.63;87.05
66337;SHT30;53139;45.576;5.304;2023-06-26T02:21:17;17.32;87.59
66337;SHT30;53139;45.576;5.304;2023-06-26T02:25:33;17.14;87.81
66337;SHT30;53139;45.576;5.304;2023-06-26T02:34:07;16.91;88.48
66337;SHT30;53139;45.576;5.304;2023-06-26T02:38:09;17.15;88.24
66337;SHT30;53139;45.576;5.304;2023-06-26T02:42:37;17.09;87.86
66337;SHT30;53139;45.576;5.304;2023-06-26T02:59:20;17.04;88.27
66337;SHT30;53139;45.576;5.304;2023-06-26T03:03:40;17.30;86.32
66337;SHT30;53139;45.576;5.304;2023-06-26T03:15:48;16.37;90.07
66337;SHT30;53139;45.576;5.304;2023-06-26T03:23:48;16.96;88.74
66337;SHT30;53139;45.576;5.304;2023-06-26T03:28:00;16.88;88.28
66337;SHT30;53139;45.576;5.304;2023-06-26T03:48:44;16.64;91.60
66337;SHT30;53139;45.576;5.304;2023-06-26T03:52:57;16.94;89.32
66337;SHT30;53139;45.576;5.304;2023-06-26T03:57:21;16.75;89.27
66337;SHT30;53139;45.576;5.304;2023-06-26T04:01:25;16.82;89.46
66337;SHT30;53139;45.576;5.304;2023-06-26T04:05:36;16.75;88.87
66337;SHT30;53139;45.576;5.304;2023-06-26T04:09:54;16.50;90.91
66337;SHT30;53139;45.576;5.304;2023-06-26T04:14:11;16.61;90.38
66337;SHT30;53139;45.576;5.304;2023-06-26T04:18:29;16.65;91.92
66337;SHT30;53139;45.576;5.304;2023-06-26T04:21:52;17.04;88.12
66337;SHT30;53139;45.576;5.304;2023-06-26T04:24:52;16.87;89.48
66337;SHT30;53139;45.576;5.304;2023-06-26T04:27:53;17.16;87.31
66337;SHT30;53139;45.576;5.304;2023-06-26T04:30:53;16.99;89.63
66337;SHT30;53139;45.576;5.304;2023-06-26T04:33:54;17.25;87.31
66337;SHT30;53139;45.576;5.304;2023-06-26T04:36:55;17.39;86.91
66337;SHT30;53139;45.576;5.304;2023-06-26T04:39:55;17.08;90.16
66337;SHT30;53139;45.576;5.304;2023-06-26T04:42:55;17.15;89.13
66337;SHT30;53139;45.576;5.304;2023-06-26T04:45:56;17.05;88.90
66337;SHT30;53139;45.576;5.304;2023-06-26T04:48:56;17.07;90.25
66337;SHT30;53139;45.576;5.304;2023-06-26T04:51:58;17.18;89.30
66337;SHT30;53139;45.576;5.304;2023-06-26T04:55:00;17.35;88.20
66337;SHT30;53139;45.576;5.304;2023-06-26T04:58:00;17.35;89.63
66337;SHT30;53139;45.576;5.304;2023-06-26T05:01:01;17.42;88.07
66337;SHT30;53139;45.576;5.304;2023-06-26T05:04:01;17.39;88.85
66337;SHT30;53139;45.576;5.304;2023-06-26T05:07:02;17.63;88.95
66337;SHT30;53139;45.576;5.304;2023-06-26T05:10:03;17.70;88.44
66337;SHT30;53139;45.576;5.304;2023-06-26T05:13:04;18.04;86.06
66337;SHT30;53139;45.576;5.304;2023-06-26T05:16:05;18.01;86.31
66337;SHT30;53139;45.576;5.304;2023-06-26T05:19:08;18.24;86.53
66337;SHT30;53139;45.576;5.304;2023-06-26T05:22:09;18.26;86.39
66337;SHT30;53139;45.576;5.304;2023-06-26T05:25:09;18.36;86.66
66337;SHT30;53139;45.576;5.304;2023-06-26T05:28:11;18.42;87.01
66337;SHT30;53139;45.576;5.304;2023-06-26T05:31:12;18.49;86.30
66337;SHT30;53139;45.576;5.304;2023-06-26T05:34:13;18.63;86.02
66337;SHT30;53139;45.576;5.304;2023-06-26T05:37:19;18.71;85.99
66337;SHT30;53139;45.576;5.304;2023-06-26T05:40:20;18.80;86.04
66337;SHT30;53139;45.576;5.304;2023-06-26T05:43:21;18.90;85.34
66337;SHT30;53139;45.576;5.304;2023-06-26T05:46:22;19.04;86.13
66337;SHT30;53139;45.576;5.304;2023-06-26T05:49:22;19.12;85.43
66337;SHT30;53139;45.576;5.304;2023-06-26T05:52:23;19.19;85.63
66337;SHT30;53139;45.576;5.304;2023-06-26T05:55:24;19.36;85.66
66337;SHT30;53139;45.576;5.304;2023-06-26T05:58:26;19.47;84.79
66337;SHT30;53139;45.576;5.304;2023-06-26T06:01:27;19.59;84.21
66337;SHT30;53139;45.576;5.304;2023-06-26T06:04:28;19.66;84.75
66337;SHT30;53139;45.576;5.304;2023-06-26T06:07:28;19.92;83.52
66337;SHT30;53139;45.576;5.304;2023-06-26T06:10:29;20.15;82.79
66337;SHT30;53139;45.576;5.304;2023-06-26T06:13:29;20.19;83.78
66337;SHT30;53139;45.576;5.304;2023-06-26T06:16:30;20.28;83.82
66337;SHT30;53139;45.576;5.304;2023-06-26T06:19:30;20.47;83.91
66337;SHT30;53139;45.576;5.304;2023-06-26T06:22:30;20.50;84.28
66337;SHT30;53139;45.576;5.304;2023-06-26T06:25:31;20.66;83.35
66337;SHT30;53139;45.576;5.304;2023-06-26T06:28:32;20.81;83.74
66337;SHT30;53139;45.576;5.304;2023-06-26T06:31:32;21.10;83.24
66337;SHT30;53139;45.576;5.304;2023-06-26T06:34:33;21.25;82.00
66337;SHT30;53139;45.576;5.304;2023-06-26T06:37:33;21.32;81.70
66337;SHT30;53139;45.576;5.304;2023-06-26T06:40:33;21.45;81.60
66337;SHT30;53139;45.576;5.304;2023-06-26T06:43:34;21.83;80.86
66337;SHT30;53139;45.576;5.304;2023-06-26T06:46:34;22.25;79.60
66337;SHT30;53139;45.576;5.304;2023-06-26T06:49:34;22.51;77.37
66337;SHT30;53139;45.576;5.304;2023-06-26T06:52:38;22.60;77.23
66337;SHT30;53139;45.576;5.304;2023-06-26T06:55:40;22.86;76.15
66337;SHT30;53139;45.576;5.304;2023-06-26T06:58:40;23.11;76.37
66337;SHT30;53139;45.576;5.304;2023-06-26T07:01:42;23.20;76.00
66337;SHT30;53139;45.576;5.304;2023-06-26T07:04:43;23.04;75.78
66337;SHT30;53139;45.576;5.304;2023-06-26T07:07:43;23.31;74.60
66337;SHT30;53139;45.576;5.304;2023-06-26T07:10:44;23.31;76.40
66337;SHT30;53139;45.576;5.304;2023-06-26T07:13:44;23.49;75.25
66337;SHT30;53139;45.576;5.304;2023-06-26T07:16:45;23.44;75.20
66337;SHT30;53139;45.576;5.304;2023-06-26T07:19:45;23.52;74.93
66337;SHT30;53139;45.576;5.304;2023-06-26T07:22:46;23.59;73.73
66337;SHT30;53139;45.576;5.304;2023-06-26T07:25:47;23.93;72.55
66337;SHT30;53139;45.576;5.304;2023-06-26T07:28:47;23.94;74.31
66337;SHT30;53139;45.576;5.304;2023-06-26T07:31:49;23.90;73.70
66337;SHT30;53139;45.576;5.304;2023-06-26T07:34:49;24.03;73.69
66337;SHT30;53139;45.576;5.304;2023-06-26T07:37:49;24.22;72.62
66337;SHT30;53139;45.576;5.304;2023-06-26T07:40:50;24.29;73.82
66337;SHT30;53139;45.576;5.304;2023-06-26T07:43:50;24.41;72.51
66337;SHT30;53139;45.576;5.304;2023-06-26T07:46:51;24.56;71.00
66337;SHT30;53139;45.576;5.304;2023-06-26T07:49:51;24.72;72.58
66337;SHT30;53139;45.576;5.304;2023-06-26T07:52:51;25.14;71.31
66337;SHT30;53139;45.576;5.304;2023-06-26T07:55:53;24.99;70.42
66337;SHT30;53139;45.576;5.304;2023-06-26T07:58:53;24.90;70.46
66337;SHT30;53139;45.576;5.304;2023-06-26T08:01:56;25.04;69.68
66337;SHT30;53139;45.576;5.304;2023-06-26T08:04:56;25.33;70.01
66337;SHT30;53139;45.576;5.304;2023-06-26T08:07:57;25.21;70.83
66337;SHT30;53139;45.576;5.304;2023-06-26T08:10:57;25.31;69.66
66337;SHT30;53139;45.576;5.304;2023-06-26T08:13:57;25.39;69.32
66337;SHT30;53139;45.576;5.304;2023-06-26T08:16:58;25.48;69.62
66337;SHT30;53139;45.576;5.304;2023-06-26T08:19:59;25.62;67.66
66337;SHT30;53139;45.576;5.304;2023-06-26T08:23:00;25.69;68.17
66337;SHT30;53139;45.576;5.304;2023-06-26T08:26:00;25.92;68.32
66337;SHT30;53139;45.576;5.304;2023-06-26T08:29:02;26.03;69.99
66337;SHT30;53139;45.576;5.304;2023-06-26T08:32:08;26.13;69.05
66337;SHT30;53139;45.576;5.304;2023-06-26T08:35:08;26.47;67.97
66337;SHT30;53139;45.576;5.304;2023-06-26T08:38:10;26.43;66.36
66337;SHT30;53139;45.576;5.304;2023-06-26T08:41:10;26.64;69.74
66337;SHT30;53139;45.576;5.304;2023-06-26T08:44:11;26.85;68.47
66337;SHT30;53139;45.576;5.304;2023-06-26T08:47:11;28.78;59.95
66337;SHT30;53139;45.576;5.304;2023-06-26T08:50:18;29.80;55.76
66337;SHT30;53139;45.576;5.304;2023-06-26T08:53:28;29.81;59.15
66337;SHT30;53139;45.576;5.304;2023-06-26T08:56:36;30.71;54.11
66337;SHT30;53139;45.576;5.304;2023-06-26T08:59:38;32.02;52.34
66337;SHT30;53139;45.576;5.304;2023-06-26T09:02:39;34.20;48.18
66337;SHT30;53139;45.576;5.304;2023-06-26T09:05:39;34.51;49.48
66337;SHT30;53139;45.576;5.304;2023-06-26T09:08:40;35.17;47.09
66337;SHT30;53139;45.576;5.304;2023-06-26T09:11:40;34.86;46.17
66337;SHT30;53139;45.576;5.304;2023-06-26T09:14:41;35.00;45.64
66337;SHT30;53139;45.576;5.304;2023-06-26T09:17:42;35.24;46.31
66337;SHT30;53139;45.576;5.304;2023-06-26T09:20:42;35.16;43.59
66337;SHT30;53139;45.576;5.304;2023-06-26T09:23:43;34.52;44.59
66337;SHT30;53139;45.576;5.304;2023-06-26T09:26:44;33.42;49.16
66337;SHT30;53139;45.576;5.304;2023-06-26T09:29:48;35.38;45.75
66337;SHT30;53139;45.576;5.304;2023-06-26T09:32:49;35.44;43.65
66337;SHT30;53139;45.576;5.304;2023-06-26T09:35:54;36.26;44.72
66337;SHT30;53139;45.576;5.304;2023-06-26T09:38:54;35.02;44.54
66337;SHT30;53139;45.576;5.304;2023-06-26T09:41:55;33.42;46.40
66337;SHT30;53139;45.576;5.304;2023-06-26T09:44:57;34.85;43.66
66337;SHT30;53139;45.576;5.304;2023-06-26T09:48:01;35.75;42.78
66337;SHT30;53139;45.576;5.304;2023-06-26T09:51:05;36.94;43.66
66337;SHT30;53139;45.576;5.304;2023-06-26T09:54:05;36.55;44.97
66337;SHT30;53139;45.576;5.304;2023-06-26T09:57:10;36.91;42.94
66337;SHT30;53139;45.576;5.304;2023-06-26T10:00:11;35.51;43.60
66337;SHT30;53139;45.576;5.304;2023-06-26T10:03:15;37.46;40.28
66337;SHT30;53139;45.576;5.304;2023-06-26T10:06:19;35.99;42.66
66337;SHT30;53139;45.576;5.304;2023-06-26T10:09:20;36.33;42.07
66337;SHT30;53139;45.576;5.304;2023-06-26T10:12:30;36.71;40.29
66337;SHT30;53139;45.576;5.304;2023-06-26T10:15:31;38.22;40.85
66337;SHT30;53139;45.576;5.304;2023-06-26T10:18:32;38.98;41.33
66337;SHT30;53139;45.576;5.304;2023-06-26T10:21:37;38.16;38.36
66337;SHT30;53139;45.576;5.304;2023-06-26T10:24:41;37.51;40.02
66337;SHT30;53139;45.576;5.304;2023-06-26T10:27:45;37.27;41.32
66337;SHT30;53139;45.576;5.304;2023-06-26T10:30:50;38.83;39.77
66337;SHT30;53139;45.576;5.304;2023-06-26T10:33:52;40.37;38.07
66337;SHT30;53139;45.576;5.304;2023-06-26T10:37:02;38.26;39.20
66337;SHT30;53139;45.576;5.304;2023-06-26T10:40:04;38.53;41.02
66337;SHT30;53139;45.576;5.304;2023-06-26T10:43:09;39.46;40.73
66337;SHT30;53139;45.576;5.304;2023-06-26T10:46:09;40.60;37.80
66337;SHT30;53139;45.576;5.304;2023-06-26T10:49:12;40.05;37.75
66337;SHT30;53139;45.576;5.304;2023-06-26T10:52:12;39.33;39.37
66337;SHT30;53139;45.576;5.304;2023-06-26T10:55:13;39.77;39.79
66337;SHT30;53139;45.576;5.304;2023-06-26T10:58:34;37.57;39.46
66337;SHT30;53139;45.576;5.304;2023-06-26T11:01:41;38.28;37.11
66337;SHT30;53139;45.576;5.304;2023-06-26T11:04:46;38.66;37.95
66337;SHT30;53139;45.576;5.304;2023-06-26T11:08:07;41.83;36.56
66337;SHT30;53139;45.576;5.304;2023-06-26T11:11:08;41.34;38.20
66337;SHT30;53139;45.576;5.304;2023-06-26T11:14:08;40.25;36.24
66337;SHT30;53139;45.576;5.304;2023-06-26T11:17:09;40.80;34.81
66337;SHT30;53139;45.576;5.304;2023-06-26T11:20:13;40.05;35.92
66337;SHT30;53139;45.576;5.304;2023-06-26T11:23:21;41.42;33.46
66337;SHT30;53139;45.576;5.304;2023-06-26T11:26:22;41.00;34.89
66337;SHT30;53139;45.576;5.304;2023-06-26T11:29:23;40.14;36.36
66337;SHT30;53139;45.576;5.304;2023-06-26T11:32:26;40.60;36.05
66337;SHT30;53139;45.576;5.304;2023-06-26T11:35:28;38.48;38.70
66337;SHT30;53139;45.576;5.304;2023-06-26T11:38:37;41.90;34.09
66337;SHT30;53139;45.576;5.304;2023-06-26T11:41:40;42.30;32.72
66337;SHT30;53139;45.576;5.304;2023-06-26T11:44:41;39.90;35.48
66337;SHT30;53139;45.576;5.304;2023-06-26T11:47:43;41.47;34.74
66337;SHT30;53139;45.576;5.304;2023-06-26T11:50:45;38.95;37.21
66337;SHT30;53139;45.576;5.304;2023-06-26T11:53:46;40.90;34.86
66337;SHT30;53139;45.576;5.304;2023-06-26T11:56:57;41.07;34.16
66337;SHT30;53139;45.576;5.304;2023-06-26T11:59:58;41.11;33.98
66337;SHT30;53139;45.576;5.304;2023-06-26T12:02:58;39.65;34.79
66337;SHT30;53139;45.576;5.304;2023-06-26T12:05:59;40.66;34.61
66337;SHT30;53139;45.576;5.304;2023-06-26T12:09:03;41.61;34.57
66337;SHT30;53139;45.576;5.304;2023-06-26T12:12:05;40.93;34.57
66337;SHT30;53139;45.576;5.304;2023-06-26T12:15:07;42.37;34.38
66337;SHT30;53139;45.576;5.304;2023-06-26T12:18:09;43.62;32.31
66337;SHT30;53139;45.576;5.304;2023-06-26T12:24:37;42.40;35.46
66337;SHT30;53139;45.576;5.304;2023-06-26T12:27:38;44.50;30.23
66337;SHT30;53139;45.576;5.304;2023-06-26T12:30:39;42.23;32.76
66337;SHT30;53139;45.576;5.304;2023-06-26T12:33:39;41.92;35.46
66337;SHT30;53139;45.576;5.304;2023-06-26T12:36:41;42.71;34.73
66337;SHT30;53139;45.576;5.304;2023-06-26T12:39:53;44.06;32.85
66337;SHT30;53139;45.576;5.304;2023-06-26T12:42:54;42.15;33.65
66337;SHT30;53139;45.576;5.304;2023-06-26T12:45:55;43.00;33.97
66337;SHT30;53139;45.576;5.304;2023-06-26T12:48:57;43.24;34.01
66337;SHT30;53139;45.576;5.304;2023-06-26T12:51:59;43.27;31.77
66337;SHT30;53139;45.576;5.304;2023-06-26T12:55:00;40.05;33.83
66337;SHT30;53139;45.576;5.304;2023-06-26T12:58:00;43.12;31.10
66337;SHT30;53139;45.576;5.304;2023-06-26T13:01:05;43.02;33.33
66337;SHT30;53139;45.576;5.304;2023-06-26T13:04:11;41.88;34.26
66337;SHT30;53139;45.576;5.304;2023-06-26T13:07:12;43.61;31.72
66337;SHT30;53139;45.576;5.304;2023-06-26T13:10:12;43.37;31.31
66337;SHT30;53139;45.576;5.304;2023-06-26T13:13:13;40.70;35.77
66337;SHT30;53139;45.576;5.304;2023-06-26T13:16:13;43.93;34.12
66337;SHT30;53139;45.576;5.304;2023-06-26T13:19:14;42.99;32.51
66337;SHT30;53139;45.576;5.304;2023-06-26T13:22:14;43.68;35.61
66337;SHT30;53139;45.576;5.304;2023-06-26T13:25:14;41.92;32.06
66337;SHT30;53139;45.576;5.304;2023-06-26T13:28:15;43.55;33.10
66337;SHT30;53139;45.576;5.304;2023-06-26T13:31:15;41.33;34.75
66337;SHT30;53139;45.576;5.304;2023-06-26T13:34:20;41.52;33.50
66337;SHT30;53139;45.576;5.304;2023-06-26T13:37:22;43.55;32.46
66337;SHT30;53139;45.576;5.304;2023-06-26T13:40:22;43.20;30.55
66337;SHT30;53139;45.576;5.304;2023-06-26T13:43:49;43.38;31.06
66337;SHT30;53139;45.576;5.304;2023-06-26T13:48:10;42.13;30.94
66337;SHT30;53139;45.576;5.304;2023-06-26T13:52:03;41.44;32.35
66337;SHT30;53139;45.576;5.304;2023-06-26T13:55:51;43.30;34.41
66337;SHT30;53139;45.576;5.304;2023-06-26T13:59:58;43.26;32.24
66337;SHT30;53139;45.576;5.304;2023-06-26T14:04:03;44.52;32.24
66337;SHT30;53139;45.576;5.304;2023-06-26T14:07:59;44.80;32.38
66337;SHT30;53139;45.576;5.304;2023-06-26T14:11:55;42.16;33.10
66337;SHT30;53139;45.576;5.304;2023-06-26T14:16:05;41.07;34.05
66337;SHT30;53139;45.576;5.304;2023-06-26T14:20:22;41.72;35.06
66337;SHT30;53139;45.576;5.304;2023-06-26T14:24:22;41.94;32.82
66337;SHT30;53139;45.576;5.304;2023-06-26T14:28:03;39.96;33.52
66337;SHT30;53139;45.576;5.304;2023-06-26T14:31:52;40.73;33.93
66337;SHT30;53139;45.576;5.304;2023-06-26T14:35:23;41.78;33.10
66337;SHT30;53139;45.576;5.304;2023-06-26T14:38:24;40.65;35.07
66337;SHT30;53139;45.576;5.304;2023-06-26T14:41:38;39.94;33.65
66337;SHT30;53139;45.576;5.304;2023-06-26T14:44:48;42.58;33.78
66337;SHT30;53139;45.576;5.304;2023-06-26T17:42:24;29.77;50.81
66337;SHT30;53139;45.576;5.304;2023-06-26T17:45:24;30.35;49.80
66337;SHT30;53139;45.576;5.304;2023-06-26T17:48:27;30.33;50.07
66337;SHT30;53139;45.576;5.304;2023-06-26T17:51:27;29.81;50.90
66337;SHT30;53139;45.576;5.304;2023-06-26T17:54:28;29.22;53.25
66337;SHT30;53139;45.576;5.304;2023-06-26T17:57:28;29.77;50.21
66337;SHT30;53139;45.576;5.304;2023-06-26T18:00:29;29.23;51.91
66337;SHT30;53139;45.576;5.304;2023-06-26T18:03:29;29.25;52.14
66337;SHT30;53139;45.576;5.304;2023-06-26T18:06:30;29.02;53.59
66337;SHT30;53139;45.576;5.304;2023-06-26T18:09:30;29.03;51.39
66337;SHT30;53139;45.576;5.304;2023-06-26T18:12:35;28.43;53.32
66337;SHT30;53139;45.576;5.304;2023-06-26T18:15:41;28.16;54.22
66337;SHT30;53139;45.576;5.304;2023-06-26T18:18:46;27.41;55.38
66337;SHT30;53139;45.576;5.304;2023-06-26T18:21:46;27.43;55.23
66337;SHT30;53139;45.576;5.304;2023-06-26T18:24:46;27.02;56.17
66337;SHT30;53139;45.576;5.304;2023-06-26T18:27:47;27.04;56.39
66337;SHT30;53139;45.576;5.304;2023-06-26T18:30:47;26.71;57.65
66337;SHT30;53139;45.576;5.304;2023-06-26T18:33:48;26.33;57.73
66337;SHT30;53139;45.576;5.304;2023-06-26T18:36:48;26.30;57.52
66337;SHT30;53139;45.576;5.304;2023-06-26T18:39:49;26.20;57.32
66337;SHT30;53139;45.576;5.304;2023-06-26T18:42:49;26.04;56.99
66337;SHT30;53139;45.576;5.304;2023-06-26T18:45:51;25.92;56.80
66337;SHT30;53139;45.576;5.304;2023-06-26T18:49:00;25.78;58.10
66337;SHT30;53139;45.576;5.304;2023-06-26T18:52:00;25.65;58.03
66337;SHT30;53139;45.576;5.304;2023-06-26T18:55:01;25.58;57.30
66337;SHT30;53139;45.576;5.304;2023-06-26T18:58:36;25.33;57.86
66337;SHT30;53139;45.576;5.304;2023-06-26T19:02:38;25.00;59.39
66337;SHT30;53139;45.576;5.304;2023-06-26T19:06:43;24.92;60.07
66337;SHT30;53139;45.576;5.304;2023-06-26T19:10:48;24.76;59.75
66337;SHT30;53139;45.576;5.304;2023-06-26T19:18:57;24.51;60.58
66337;SHT30;53139;45.576;5.304;2023-06-26T19:22:57;24.37;60.77
66337;SHT30;53139;45.576;5.304;2023-06-26T22:59:28;19.87;69.76
66337;SHT30;53139;45.576;5.304;2023-06-26T23:02:29;19.98;69.91
66337;SHT30;53139;45.576;5.304;2023-06-26T23:05:30;19.98;70.36
66337;SHT30;53139;45.576;5.304;2023-06-26T23:08:31;19.66;69.97
66337;SHT30;53139;45.576;5.304;2023-06-26T23:11:32;19.39;72.31
66337;SHT30;53139;45.576;5.304;2023-06-26T23:14:33;19.57;71.06
66337;SHT30;53139;45.576;5.304;2023-06-26T23:17:33;19.45;70.42
66337;SHT30;53139;45.576;5.304;2023-06-26T23:20:35;19.73;70.98
66337;SHT30;53139;45.576;5.304;2023-06-26T23:23:35;19.47;71.09
66337;SHT30;53139;45.576;5.304;2023-06-26T23:26:37;19.49;71.04
66337;SHT30;53139;45.576;5.304;2023-06-26T23:29:39;19.43;71.55
66337;SHT30;53139;45.576;5.304;2023-06-26T23:32:40;19.33;72.27
66337;SHT30;53139;45.576;5.304;2023-06-26T23:35:41;19.18;72.81
66337;SHT30;53139;45.576;5.304;2023-06-26T23:38:47;18.92;72.45
66337;SHT30;53139;45.576;5.304;2023-06-26T23:41:49;19.32;71.55
66337;SHT30;53139;45.576;5.304;2023-06-26T23:44:52;19.04;72.73
66337;SHT30;53139;45.576;5.304;2023-06-26T23:47:53;19.30;72.07
66337;SHT30;53139;45.576;5.304;2023-06-26T23:50:54;19.12;72.24
66337;SHT30;53139;45.576;5.304;2023-06-26T23:53:55;18.78;73.44
66337;SHT30;53139;45.576;5.304;2023-06-26T23:56:56;18.74;72.60
66337;SHT30;53139;45.576;5.304;2023-06-26T23:59:56;19.02;72.39
